createdAt,value
2023-04-28T00:00:38.908Z,7.00
2023-04-28T00:03:05.818Z,7.00
2023-04-28T00:05:32.873Z,7.00
2023-04-28T00:07:59.845Z,7.00
2023-04-28T00:10:26.650Z,6.90
2023-04-28T00:12:53.437Z,7.00
2023-04-28T00:15:21.001Z,7.00
2023-04-28T00:17:48.043Z,6.90
2023-04-28T00:20:14.913Z,6.90
2023-04-28T00:22:42.138Z,6.90
2023-04-28T00:25:11.554Z,6.90
2023-04-28T00:27:38.546Z,6.90
2023-04-28T00:30:06.281Z,6.90
2023-04-28T00:32:33.198Z,6.90
2023-04-28T00:35:00.082Z,6.90
2023-04-28T00:37:26.886Z,6.90
2023-04-28T00:39:56.848Z,6.90
2023-04-28T00:42:24.098Z,6.90
2023-04-28T00:44:51.060Z,6.90
2023-04-28T00:47:19.328Z,6.80
2023-04-28T00:49:47.747Z,6.80
2023-04-28T00:52:14.564Z,6.80
2023-04-28T00:54:42.751Z,6.70
2023-04-28T00:57:10.975Z,6.70
2023-04-28T00:59:38.215Z,6.70
2023-04-28T01:02:06.691Z,6.70
2023-04-28T01:04:34.260Z,6.60
2023-04-28T01:07:02.340Z,6.60
2023-04-28T01:09:29.397Z,6.60
2023-04-28T01:11:56.246Z,6.60
2023-04-28T01:14:23.238Z,6.60
2023-04-28T01:16:50.205Z,6.60
2023-04-28T01:19:26.397Z,6.60
2023-04-28T01:21:53.301Z,6.50
2023-04-28T01:24:20.352Z,6.60
2023-04-28T01:26:47.372Z,6.50
2023-04-28T01:29:14.283Z,6.50
2023-04-28T01:31:41.290Z,6.50
2023-04-28T01:34:08.291Z,6.50
2023-04-28T01:36:37.398Z,6.60
2023-04-28T01:39:05.143Z,6.60
2023-04-28T01:41:34.427Z,6.60
2023-04-28T01:44:01.646Z,6.60
2023-04-28T01:46:28.492Z,6.60
2023-04-28T01:48:55.421Z,6.60
2023-04-28T01:51:22.273Z,6.70
2023-04-28T01:53:49.246Z,6.60
2023-04-28T01:56:16.207Z,6.70
2023-04-28T01:58:43.056Z,6.70
2023-04-28T02:01:09.883Z,6.70
2023-04-28T02:03:37.008Z,6.70
2023-04-28T02:06:04.873Z,6.70
2023-04-28T02:08:31.860Z,6.70
2023-04-28T02:10:58.794Z,6.70
2023-04-28T02:13:25.635Z,6.70
2023-04-28T02:15:52.653Z,6.70
2023-04-28T02:18:19.528Z,6.70
2023-04-28T02:20:46.370Z,6.80
2023-04-28T02:23:13.424Z,6.70
2023-04-28T02:25:40.260Z,6.70
2023-04-28T02:28:07.176Z,6.80
2023-04-28T02:30:34.023Z,6.80
2023-04-28T02:33:00.879Z,6.70
2023-04-28T02:35:27.967Z,6.70
2023-04-28T02:37:54.811Z,6.70
2023-04-28T02:40:21.700Z,6.70
2023-04-28T02:42:48.486Z,6.70
2023-04-28T02:45:15.571Z,6.70
2023-04-28T02:47:42.373Z,6.70
2023-04-28T02:50:09.644Z,6.60
2023-04-28T02:52:36.469Z,6.60
2023-04-28T02:55:04.783Z,6.60
2023-04-28T02:57:31.576Z,6.60
2023-04-28T02:59:58.401Z,6.60
2023-04-28T03:02:25.606Z,6.50
2023-04-28T03:04:52.490Z,6.50
2023-04-28T03:07:19.432Z,6.50
2023-04-28T03:09:46.404Z,6.50
2023-04-28T03:12:13.343Z,6.40
2023-04-28T03:14:40.141Z,6.40
2023-04-28T03:17:07.549Z,6.40
2023-04-28T03:19:34.453Z,6.30
2023-04-28T03:22:01.265Z,6.30
2023-04-28T03:24:28.076Z,6.30
2023-04-28T03:26:55.052Z,6.20
2023-04-28T03:29:24.320Z,6.20
2023-04-28T03:31:51.866Z,6.20
2023-04-28T03:34:18.908Z,6.10
2023-04-28T03:36:46.098Z,6.20
2023-04-28T03:39:12.897Z,6.10
2023-04-28T03:41:39.712Z,6.10
2023-04-28T03:44:06.579Z,6.10
2023-04-28T03:46:34.697Z,6.10
2023-04-28T03:49:02.347Z,6.10
2023-04-28T03:51:30.230Z,6.10
2023-04-28T03:53:57.063Z,6.00
2023-04-28T03:56:24.108Z,6.00
2023-04-28T03:58:51.172Z,6.10
2023-04-28T04:01:18.011Z,6.10
2023-04-28T04:03:45.119Z,6.10
2023-04-28T04:06:12.608Z,6.10
2023-04-28T04:08:39.584Z,6.10
2023-04-28T04:11:06.493Z,6.10
2023-04-28T04:13:33.368Z,6.10
2023-04-28T04:16:00.615Z,6.10
2023-04-28T04:18:27.678Z,6.10
2023-04-28T04:20:55.936Z,6.20
2023-04-28T04:23:23.136Z,6.20
2023-04-28T04:25:50.265Z,6.10
2023-04-28T04:28:17.203Z,6.20
2023-04-28T04:30:44.940Z,6.10
2023-04-28T04:33:11.806Z,6.20
2023-04-28T04:35:38.709Z,6.20
2023-04-28T04:38:05.631Z,6.30
2023-04-28T04:40:32.397Z,6.30
2023-04-28T04:42:59.298Z,6.40
2023-04-28T04:45:26.173Z,6.40
2023-04-28T04:47:53.417Z,6.40
2023-04-28T04:50:20.556Z,6.50
2023-04-28T04:52:47.461Z,6.50
2023-04-28T04:55:14.328Z,6.60
2023-04-28T04:57:41.171Z,6.60
2023-04-28T05:00:08.860Z,6.70
2023-04-28T05:02:36.069Z,6.70
2023-04-28T05:05:16.876Z,6.70
2023-04-28T05:07:47.936Z,6.80
2023-04-28T05:10:14.766Z,6.80
2023-04-28T05:12:41.605Z,6.90
2023-04-28T05:15:09.090Z,6.90
2023-04-28T05:17:35.988Z,7.00
2023-04-28T05:20:03.449Z,7.00
2023-04-28T05:22:31.332Z,7.10
2023-04-28T05:24:58.301Z,7.10
2023-04-28T05:27:25.100Z,7.20
2023-04-28T05:29:51.863Z,7.30
2023-04-28T05:32:18.706Z,7.30
2023-04-28T05:34:45.957Z,7.30
2023-04-28T05:37:12.751Z,7.40
2023-04-28T05:39:39.604Z,7.40
2023-04-28T05:42:06.549Z,7.50
2023-04-28T05:44:33.415Z,7.50
2023-04-28T05:47:00.459Z,7.60
2023-04-28T05:49:27.289Z,7.60
2023-04-28T05:51:54.101Z,7.60
2023-04-28T05:54:20.933Z,7.70
2023-04-28T05:56:47.826Z,7.60
2023-04-28T05:59:15.924Z,7.60
2023-04-28T06:01:43.254Z,7.60
2023-04-28T06:04:10.415Z,7.60
2023-04-28T06:06:37.403Z,7.60
2023-04-28T06:09:04.642Z,7.60
2023-04-28T06:11:31.696Z,7.60
2023-04-28T06:13:58.566Z,7.60
2023-04-28T06:16:26.213Z,7.60
2023-04-28T06:18:53.426Z,7.60
2023-04-28T06:21:21.505Z,7.60
2023-04-28T06:23:48.635Z,7.60
2023-04-28T06:26:17.981Z,7.60
2023-04-28T06:28:45.323Z,7.70
2023-04-28T06:31:12.275Z,7.70
2023-04-28T06:33:39.093Z,7.70
2023-04-28T06:36:06.345Z,7.70
2023-04-28T06:38:33.136Z,7.80
2023-04-28T06:40:59.920Z,7.90
2023-04-28T06:43:26.952Z,7.90
2023-04-28T06:45:53.919Z,8.00
2023-04-28T06:48:21.007Z,8.10
2023-04-28T06:50:47.804Z,8.10
2023-04-28T06:53:14.675Z,8.10
2023-04-28T06:55:41.716Z,8.20
2023-04-28T06:58:08.537Z,8.30
2023-04-28T07:00:35.564Z,8.40
2023-04-28T07:03:02.854Z,8.40
2023-04-28T07:05:30.128Z,8.40
2023-04-28T07:07:57.016Z,8.40
2023-04-28T07:10:24.295Z,8.50
2023-04-28T07:12:54.245Z,8.40
2023-04-28T07:15:21.348Z,8.50
2023-04-28T07:17:48.263Z,8.50
2023-04-28T07:20:15.356Z,8.50
2023-04-28T07:22:42.273Z,8.60
2023-04-28T07:25:09.387Z,8.60
2023-04-28T07:27:36.847Z,8.70
2023-04-28T07:30:14.735Z,8.80
2023-04-28T07:32:42.988Z,8.90
2023-04-28T07:35:10.074Z,9.00
2023-04-28T07:37:37.751Z,9.10
2023-04-28T07:40:05.887Z,9.30
2023-04-28T07:42:32.981Z,9.40
2023-04-28T07:44:59.745Z,9.50
2023-04-28T07:47:27.742Z,9.60
2023-04-28T07:49:54.594Z,9.80
2023-04-28T07:52:21.806Z,9.90
2023-04-28T07:54:48.856Z,10.00
2023-04-28T07:57:15.858Z,10.10
2023-04-28T07:59:42.811Z,10.30
2023-04-28T08:02:13.291Z,10.40
2023-04-28T08:04:40.514Z,10.40
2023-04-28T08:07:08.557Z,10.50
2023-04-28T08:09:35.625Z,10.70
2023-04-28T08:12:03.009Z,11.10
2023-04-28T08:14:29.898Z,11.50
2023-04-28T08:16:57.355Z,11.90
2023-04-28T08:19:24.343Z,12.30
2023-04-28T08:21:51.514Z,12.40
2023-04-28T08:24:18.516Z,12.40
2023-04-28T08:26:45.734Z,12.40
2023-04-28T08:29:12.665Z,12.30
2023-04-28T08:31:39.515Z,12.30
2023-04-28T08:34:06.368Z,12.30
2023-04-28T08:36:33.454Z,12.30
2023-04-28T08:39:03.409Z,12.30
2023-04-28T08:41:33.071Z,12.40
2023-04-28T08:44:00.069Z,12.50
2023-04-28T08:46:28.973Z,12.60
2023-04-28T08:49:03.641Z,12.70
2023-04-28T08:51:37.823Z,12.90
2023-04-28T08:56:37.650Z,13.30
2023-04-28T08:59:05.662Z,13.40
2023-04-28T09:01:32.958Z,13.30
2023-04-28T09:04:04.114Z,13.20
2023-04-28T09:06:40.669Z,13.00
2023-04-28T09:09:30.859Z,13.00
2023-04-28T09:12:01.870Z,13.00
2023-04-28T09:14:34.517Z,13.00
2023-04-28T09:17:02.482Z,13.20
2023-04-28T09:19:39.368Z,13.30
2023-04-28T09:22:24.063Z,13.30
2023-04-28T09:24:54.018Z,13.30
2023-04-28T09:27:28.601Z,13.40
2023-04-28T09:29:57.009Z,13.40
2023-04-28T09:32:25.014Z,13.40
2023-04-28T09:34:54.028Z,13.40
2023-04-28T09:37:23.248Z,13.40
2023-04-28T09:39:51.908Z,13.40
2023-04-28T09:42:51.757Z,13.50
2023-04-28T09:45:18.639Z,13.60
2023-04-28T09:47:48.147Z,13.90
2023-04-28T09:50:17.501Z,14.10
2023-04-28T09:52:56.759Z,14.40
2023-04-28T09:55:25.019Z,14.60
2023-04-28T09:57:55.037Z,14.70
2023-04-28T10:00:23.467Z,14.70
2023-04-28T10:02:51.967Z,14.70
2023-04-28T10:05:20.340Z,14.60
2023-04-28T10:07:47.422Z,14.60
2023-04-28T10:10:15.082Z,14.60
2023-04-28T10:12:42.576Z,14.60
2023-04-28T10:15:10.441Z,14.60
2023-04-28T10:17:38.757Z,14.60
2023-04-28T10:20:06.622Z,14.50
2023-04-28T10:23:01.250Z,14.60
2023-04-28T10:25:38.761Z,14.90
2023-04-28T10:28:07.870Z,15.80
2023-04-28T10:30:35.913Z,16.70
2023-04-28T10:33:12.156Z,17.40
2023-04-28T10:35:40.690Z,18.10
2023-04-28T10:38:16.627Z,18.90
2023-04-28T10:40:45.279Z,19.80
2023-04-28T10:43:14.330Z,20.60
2023-04-28T10:45:56.210Z,21.10
2023-04-28T10:48:46.463Z,21.00
2023-04-28T10:51:16.448Z,20.70
2023-04-28T10:53:46.712Z,20.40
2023-04-28T10:56:24.869Z,20.00
2023-04-28T10:58:55.861Z,19.50
2023-04-28T11:01:24.297Z,19.00
2023-04-28T11:04:08.316Z,18.50
2023-04-28T11:06:40.711Z,18.20
2023-04-28T11:09:17.554Z,18.00
2023-04-28T11:12:06.738Z,18.00
2023-04-28T11:14:35.518Z,18.10
2023-04-28T11:17:08.332Z,18.10
2023-04-28T11:19:37.771Z,18.20
2023-04-28T11:22:25.377Z,18.30
2023-04-28T11:25:02.774Z,18.30
2023-04-28T11:27:34.467Z,18.50
2023-04-28T11:30:01.844Z,18.50
2023-04-28T11:32:36.707Z,18.40
2023-04-28T11:35:04.836Z,18.20
2023-04-28T11:37:31.907Z,18.00
2023-04-28T11:39:58.862Z,17.90
2023-04-28T11:42:27.818Z,17.80
2023-04-28T11:44:55.143Z,18.00
2023-04-28T11:47:33.568Z,18.60
2023-04-28T11:50:03.792Z,19.10
2023-04-28T11:52:30.657Z,19.50
2023-04-28T11:55:00.272Z,19.70
2023-04-28T11:57:27.822Z,19.60
2023-04-28T12:00:12.154Z,19.30
2023-04-28T12:02:39.651Z,19.00
2023-04-28T12:05:07.875Z,18.70
2023-04-28T12:07:45.857Z,18.40
2023-04-28T12:10:16.154Z,18.10
2023-04-28T12:12:50.936Z,17.80
2023-04-28T12:15:20.864Z,17.50
2023-04-28T12:17:49.185Z,17.20
2023-04-28T12:20:39.452Z,16.90
2023-04-28T12:23:07.713Z,16.70
2023-04-28T12:25:44.459Z,16.60
2023-04-28T12:28:11.334Z,16.50
2023-04-28T12:30:43.398Z,16.30
2023-04-28T12:33:29.006Z,16.20
2023-04-28T12:35:59.754Z,16.10
2023-04-28T12:38:28.314Z,16.00
2023-04-28T12:40:55.821Z,15.90
2023-04-28T12:43:23.471Z,15.80
2023-04-28T12:45:53.326Z,15.60
2023-04-28T12:48:20.739Z,15.40
2023-04-28T12:50:47.620Z,15.10
2023-04-28T12:53:14.653Z,14.80
2023-04-28T12:55:41.615Z,14.50
2023-04-28T12:58:08.705Z,14.40
2023-04-28T13:00:35.503Z,14.30
2023-04-28T13:03:02.461Z,14.30
2023-04-28T13:05:29.461Z,14.30
2023-04-28T13:07:56.395Z,14.20
2023-04-28T13:10:23.674Z,14.10
2023-04-28T13:12:50.618Z,14.10
2023-04-28T13:15:17.683Z,14.00
2023-04-28T13:17:46.467Z,14.00
2023-04-28T13:20:13.440Z,14.00
2023-04-28T13:22:40.407Z,14.00
2023-04-28T13:25:07.659Z,14.00
2023-04-28T13:27:35.773Z,13.90
2023-04-28T13:30:05.529Z,13.90
2023-04-28T13:32:32.591Z,13.90
2023-04-28T13:34:59.509Z,13.90
2023-04-28T13:37:26.670Z,13.90
2023-04-28T13:39:53.663Z,14.00
2023-04-28T13:42:20.829Z,13.90
2023-04-28T13:44:49.298Z,13.90
2023-04-28T13:47:16.393Z,13.70
2023-04-28T13:49:43.580Z,13.60
2023-04-28T13:52:11.056Z,13.50
2023-04-28T13:54:37.897Z,13.50
2023-04-28T13:57:04.692Z,13.40
2023-04-28T13:59:31.865Z,13.40
2023-04-28T14:01:58.717Z,13.40
2023-04-28T14:04:26.028Z,13.30
2023-04-28T14:06:53.095Z,13.30
2023-04-28T14:09:20.293Z,13.30
2023-04-28T14:11:47.586Z,13.40
2023-04-28T14:14:14.486Z,13.30
2023-04-28T14:16:41.791Z,13.40
2023-04-28T14:19:08.812Z,13.40
2023-04-28T14:21:36.878Z,13.40
2023-04-28T14:24:04.068Z,13.40
2023-04-28T14:26:30.985Z,13.30
2023-04-28T14:28:57.913Z,13.30
2023-04-28T14:31:24.837Z,13.30
2023-04-28T14:33:51.725Z,13.30
2023-04-28T14:36:19.633Z,13.30
2023-04-28T14:38:46.543Z,13.30
2023-04-28T14:41:13.346Z,13.30
2023-04-28T14:43:40.195Z,13.40
2023-04-28T14:46:07.955Z,13.40
2023-04-28T14:48:35.038Z,13.50
2023-04-28T14:51:02.414Z,13.50
2023-04-28T14:53:30.334Z,13.50
2023-04-28T14:56:07.575Z,13.50
2023-04-28T14:58:44.858Z,13.50
2023-04-28T15:01:11.950Z,13.40
2023-04-28T15:03:39.389Z,13.40
2023-04-28T15:06:06.573Z,13.40
2023-04-28T15:08:33.511Z,13.40
2023-04-28T15:11:00.515Z,13.40
2023-04-28T15:13:28.593Z,13.40
2023-04-28T15:15:56.131Z,13.40
2023-04-28T15:18:23.234Z,13.40
2023-04-28T15:20:58.020Z,13.40
2023-04-28T15:23:24.934Z,13.40
2023-04-28T15:25:54.342Z,13.40
2023-04-28T15:28:22.108Z,13.40
2023-04-28T15:30:48.926Z,13.30
2023-04-28T15:33:18.646Z,13.30
2023-04-28T15:35:46.492Z,13.30
2023-04-28T15:38:13.796Z,13.30
2023-04-28T15:40:40.931Z,13.30
2023-04-28T15:43:08.327Z,13.40
2023-04-28T15:45:35.519Z,13.40
2023-04-28T15:48:02.525Z,13.40
2023-04-28T15:50:29.508Z,13.40
2023-04-28T15:52:56.450Z,13.40
2023-04-28T15:55:25.142Z,13.40
2023-04-28T15:57:52.872Z,13.40
2023-04-28T16:00:19.902Z,13.40
2023-04-28T16:02:46.894Z,13.40
2023-04-28T16:05:14.007Z,13.40
2023-04-28T16:07:41.092Z,13.50
2023-04-28T16:10:09.832Z,13.40
2023-04-28T16:12:37.477Z,13.40
2023-04-28T16:15:05.332Z,13.40
2023-04-28T16:17:33.973Z,13.40
2023-04-28T16:20:06.013Z,13.40
2023-04-28T16:22:33.069Z,13.40
2023-04-28T16:25:06.571Z,13.40
2023-04-28T16:27:35.092Z,13.40
2023-04-28T16:30:02.297Z,13.30
2023-04-28T16:32:29.321Z,13.30
2023-04-28T16:34:59.818Z,13.30
2023-04-28T16:37:29.172Z,13.30
2023-04-28T16:39:55.978Z,13.30
2023-04-28T16:42:25.816Z,13.20
2023-04-28T16:44:53.151Z,13.20
2023-04-28T16:47:20.981Z,13.10
2023-04-28T16:49:48.266Z,13.10
2023-04-28T16:52:15.562Z,13.10
2023-04-28T16:54:42.401Z,13.00
2023-04-28T16:57:09.318Z,13.00
2023-04-28T16:59:37.343Z,12.90
2023-04-28T17:02:04.232Z,12.90
2023-04-28T17:04:31.654Z,12.80
2023-04-28T17:06:59.335Z,12.80
2023-04-28T17:09:27.567Z,12.80
2023-04-28T17:11:55.077Z,12.80
2023-04-28T17:14:22.105Z,12.80
2023-04-28T17:16:49.109Z,12.80
2023-04-28T17:19:16.802Z,12.80
2023-04-28T17:21:43.773Z,12.80
2023-04-28T17:24:10.647Z,12.80
2023-04-28T17:26:37.706Z,12.70
2023-04-28T17:29:04.856Z,12.70
2023-04-28T17:31:31.771Z,12.70
2023-04-28T17:34:01.690Z,12.60
2023-04-28T17:36:28.876Z,12.60
2023-04-28T17:38:56.527Z,12.60
2023-04-28T17:41:23.548Z,12.50
2023-04-28T17:43:51.803Z,12.50
2023-04-28T17:46:18.989Z,12.50
2023-04-28T17:48:48.839Z,12.50
2023-04-28T17:51:15.761Z,12.50
2023-04-28T17:53:42.677Z,12.50
2023-04-28T17:56:09.570Z,12.40
2023-04-28T17:58:38.583Z,12.40
2023-04-28T18:01:07.413Z,12.40
2023-04-28T18:03:36.197Z,12.40
2023-04-28T18:06:04.832Z,12.40
2023-04-28T18:08:32.163Z,12.40
2023-04-28T18:11:00.554Z,12.40
2023-04-28T18:13:30.601Z,12.30
2023-04-28T18:15:57.676Z,12.30
2023-04-28T18:18:25.522Z,12.30
2023-04-28T18:21:03.051Z,12.30
2023-04-28T18:23:33.085Z,12.30
2023-04-28T18:25:59.913Z,12.30
2023-04-28T18:28:26.834Z,12.30
2023-04-28T18:30:53.864Z,12.20
2023-04-28T18:33:23.273Z,12.20
2023-04-28T18:35:59.825Z,12.20
2023-04-28T18:38:26.890Z,12.20
2023-04-28T18:40:53.726Z,12.20
2023-04-28T18:43:21.688Z,12.20
2023-04-28T18:45:48.594Z,12.10
2023-04-28T18:48:15.531Z,12.10
2023-04-28T18:50:42.604Z,12.10
2023-04-28T18:53:10.829Z,12.10
2023-04-28T18:55:38.843Z,12.10
2023-04-28T18:58:05.761Z,12.00
2023-04-28T19:00:39.619Z,12.00
2023-04-28T19:03:06.578Z,12.00
2023-04-28T19:05:34.557Z,12.00
2023-04-28T19:08:01.361Z,11.90
2023-04-28T19:10:28.233Z,11.90
2023-04-28T19:12:56.260Z,11.90
2023-04-28T19:15:23.762Z,11.90
2023-04-28T19:17:51.088Z,11.90
2023-04-28T19:20:18.077Z,11.80
2023-04-28T19:22:47.242Z,11.80
2023-04-28T19:25:15.334Z,11.80
2023-04-28T19:27:43.217Z,11.80
2023-04-28T19:30:12.506Z,11.70
2023-04-28T19:32:43.348Z,11.70
2023-04-28T19:35:10.587Z,11.70
2023-04-28T19:37:43.059Z,11.70
2023-04-28T19:40:13.297Z,11.70
2023-04-28T19:42:40.144Z,11.70
2023-04-28T19:45:07.985Z,11.70
2023-04-28T19:47:35.052Z,11.70
2023-04-28T19:50:05.293Z,11.70
2023-04-28T19:52:32.228Z,11.70
2023-04-28T19:55:00.696Z,11.60
2023-04-28T19:57:27.632Z,11.60
2023-04-28T19:59:55.668Z,11.60
2023-04-28T20:02:23.040Z,11.60
2023-04-28T20:04:52.352Z,11.60
2023-04-28T20:07:24.234Z,11.60
2023-04-28T20:09:52.594Z,11.60
2023-04-28T20:12:19.649Z,11.60
2023-04-28T20:14:47.191Z,11.60
2023-04-28T20:17:18.546Z,11.50
2023-04-28T20:19:45.445Z,11.50
2023-04-28T20:22:12.389Z,11.50
2023-04-28T20:24:40.658Z,11.40
2023-04-28T20:27:07.696Z,11.40
2023-04-28T20:29:35.080Z,11.40
2023-04-28T20:32:02.625Z,11.40
2023-04-28T20:34:30.702Z,11.40
2023-04-28T20:36:59.448Z,11.30
2023-04-28T20:39:29.139Z,11.30
2023-04-28T20:41:56.080Z,11.30
2023-04-28T20:44:22.913Z,11.30
2023-04-28T20:46:49.896Z,11.30
2023-04-28T20:49:16.954Z,11.30
2023-04-28T20:51:45.318Z,11.20
2023-04-28T20:54:16.032Z,11.20
2023-04-28T20:56:43.200Z,11.20
2023-04-28T20:59:12.163Z,11.20
2023-04-28T21:01:39.014Z,11.20
2023-04-28T21:04:06.191Z,11.20
2023-04-28T21:06:33.126Z,11.20
2023-04-28T21:08:59.980Z,11.20
2023-04-28T21:11:27.006Z,11.20
2023-04-28T21:13:54.172Z,11.20
2023-04-28T21:16:23.600Z,11.20
2023-04-28T21:18:50.757Z,11.20
2023-04-28T21:21:18.474Z,11.20
2023-04-28T21:23:45.874Z,11.20
2023-04-28T21:26:15.020Z,11.20
2023-04-28T21:28:41.920Z,11.20
2023-04-28T21:31:12.360Z,11.20
2023-04-28T21:33:39.512Z,11.20
2023-04-28T21:36:08.092Z,11.20
2023-04-28T21:38:38.963Z,11.10
2023-04-28T21:41:07.537Z,11.20
2023-04-28T21:43:34.887Z,11.10
2023-04-28T21:46:01.781Z,11.10
2023-04-28T21:48:28.656Z,11.10
2023-04-28T21:50:55.431Z,11.10
2023-04-28T21:53:22.684Z,11.00
2023-04-28T21:55:49.509Z,11.00
2023-04-28T21:58:16.538Z,11.00
2023-04-28T22:00:46.508Z,11.10
2023-04-28T22:03:14.605Z,11.00
2023-04-28T22:05:42.193Z,11.00
2023-04-28T22:08:09.213Z,11.00
2023-04-28T22:10:36.625Z,10.90
2023-04-28T22:13:05.002Z,10.90
2023-04-28T22:15:32.093Z,10.90
2023-04-28T22:17:59.061Z,10.90
2023-04-28T22:20:25.954Z,10.90
2023-04-28T22:22:53.927Z,10.90
2023-04-28T22:25:21.099Z,10.80
2023-04-28T22:27:48.113Z,10.90
2023-04-28T22:30:15.614Z,10.80
2023-04-28T22:32:46.937Z,10.80
2023-04-28T22:35:14.613Z,10.80
2023-04-28T22:37:41.479Z,10.80
2023-04-28T22:40:08.848Z,10.80
2023-04-28T22:42:40.439Z,10.70
2023-04-28T22:45:09.606Z,10.70
2023-04-28T22:47:37.600Z,10.70
2023-04-28T22:50:06.121Z,10.70
2023-04-28T22:52:33.866Z,10.60
2023-04-28T22:55:01.184Z,10.60
2023-04-28T22:57:28.284Z,10.60
2023-04-28T22:59:55.364Z,10.60
2023-04-28T23:02:23.094Z,10.60
2023-04-28T23:04:50.540Z,10.50
2023-04-28T23:07:17.609Z,10.50
2023-04-28T23:09:44.587Z,10.50
2023-04-28T23:12:11.541Z,10.40
2023-04-28T23:14:38.380Z,10.40
2023-04-28T23:17:05.377Z,10.50
2023-04-28T23:19:32.287Z,10.40
2023-04-28T23:21:59.700Z,10.40
2023-04-28T23:24:27.337Z,10.40
2023-04-28T23:26:54.263Z,10.40
2023-04-28T23:29:21.192Z,10.30
2023-04-28T23:31:52.480Z,10.30
2023-04-28T23:34:19.536Z,10.30
2023-04-28T23:36:46.373Z,10.30
2023-04-28T23:39:13.509Z,10.20
2023-04-28T23:41:41.062Z,10.20
2023-04-28T23:44:08.641Z,10.20
2023-04-28T23:46:35.528Z,10.20
2023-04-28T23:49:02.444Z,10.20
2023-04-28T23:51:29.742Z,10.20
2023-04-28T23:53:56.895Z,10.20
2023-04-28T23:56:23.801Z,10.20
2023-04-28T23:58:51.130Z,10.20
